^^
Saratoga-Weather Station Historical Data
Daily Summary for May 4, 2020 Units:  English    Metric   Both
Daily Weekly Monthly Yearly Custom
  High: Low: Average:
Temperature: 77.4 °F 55.2 °F 65.1 °F
Dew Point: 56.7 °F 50.4 °F 53.1 °F
Humidity: 92% 39% 68%
Wind Speed: 8.9mph 0mph 1.9mph
Wind Gust: 10mph - -
Wind- - WSW
Pressure: 30 in 29.9 in -
Precipitation: 0 in    
Historical Graphs
 
 
Tabular Data for May 4, 2020
Time Temperature Dew Point Pressure Wind Wind Speed Wind Gust Humidity Rainfall Rate (Hourly) solar
00:02 57.4 °F 54.5 °F 29.9 in WSW 6.9 mph 7 mph 90% 0 in 0 W/m2
00:07 57.4 °F 54.5 °F 29.9 in West 6 mph 8 mph 90% 0 in 0 W/m2
00:12 57.4 °F 54.5 °F 29.9 in West 4 mph 6 mph 90% 0 in 0 W/m2
00:17 57.2 °F 54.3 °F 29.9 in West 4 mph 7 mph 90% 0 in 0 W/m2
00:22 57.2 °F 54.3 °F 29.9 in WSW 2.9 mph 5 mph 90% 0 in 0 W/m2
00:27 57.4 °F 54.5 °F 29.9 in SW 2.9 mph 6 mph 90% 0 in 0 W/m2
00:32 57.4 °F 54.5 °F 29.9 in West 2.9 mph 4 mph 90% 0 in 0 W/m2
00:37 57.4 °F 54.5 °F 29.9 in SW 2.9 mph 4 mph 90% 0 in 0 W/m2
00:42 57.6 °F 54.7 °F 29.9 in WSW 4 mph 4 mph 90% 0 in 0 W/m2
00:47 57.6 °F 54.3 °F 29.9 in West 4 mph 4 mph 89% 0 in 0 W/m2
00:52 57.6 °F 54.3 °F 29.9 in WNW 0.9 mph 3 mph 89% 0 in 0 W/m2
00:57 57.6 °F 54.3 °F 29.9 in WSW 2 mph 4 mph 89% 0 in 0 W/m2
01:02 57.7 °F 54.5 °F 29.9 in WSW 0.9 mph 1 mph 89% 0 in 0 W/m2
01:07 57.6 °F 54.7 °F 29.9 in Calm     90% 0 in 0 W/m2
01:12 57.2 °F 54.3 °F 29.9 in WSW 0.9 mph 2 mph 90% 0 in 0 W/m2
01:17 56.8 °F 54.3 °F 29.9 in Calm   1 mph 91% 0 in 0 W/m2
01:22 56.7 °F 54.1 °F 29.9 in Calm     91% 0 in 0 W/m2
01:27 56.5 °F 54 °F 29.9 in WSW 0.9 mph 2 mph 91% 0 in 0 W/m2
01:32 56.3 °F 54 °F 29.9 in SW 2 mph 4 mph 92% 0 in 0 W/m2
01:37 56.5 °F 54.1 °F 29.9 in WSW 4 mph 4 mph 92% 0 in 0 W/m2
01:42 56.7 °F 54.3 °F 29.9 in West 2.9 mph 6 mph 92% 0 in 0 W/m2
01:47 56.8 °F 54.3 °F 29.9 in West 2.9 mph 4 mph 91% 0 in 0 W/m2
01:52 57 °F 54.1 °F 29.9 in West 2 mph 4 mph 90% 0 in 0 W/m2
01:57 57.2 °F 54.3 °F 29.9 in WNW 2 mph 4 mph 90% 0 in 0 W/m2
02:02 57.4 °F 54.5 °F 29.9 in West 2.9 mph 4 mph 90% 0 in 0 W/m2
02:07 57.4 °F 54.1 °F 29.9 in WNW 2 mph 3 mph 89% 0 in 0 W/m2
02:12 57.4 °F 54.1 °F 29.9 in WSW 2 mph 6 mph 89% 0 in 0 W/m2
02:17 57.6 °F 54.3 °F 29.9 in WNW 4 mph 6 mph 89% 0 in 0 W/m2
02:22 57.6 °F 54 °F 29.9 in WSW 0.9 mph 3 mph 88% 0 in 0 W/m2
02:27 57.6 °F 54 °F 29.9 in WSW 0.9 mph 3 mph 88% 0 in 0 W/m2
02:32 57.6 °F 54 °F 29.9 in West 2 mph 3 mph 88% 0 in 0 W/m2
02:37 57.6 °F 54 °F 29.9 in West 2 mph 4 mph 88% 0 in 0 W/m2
02:42 57.6 °F 54 °F 29.9 in WSW 2 mph 3 mph 88% 0 in 0 W/m2
02:47 57.6 °F 53.8 °F 29.9 in West 4 mph 4 mph 87% 0 in 0 W/m2
02:52 57.6 °F 53.8 °F 29.9 in West 2 mph 4 mph 87% 0 in 0 W/m2
02:57 57.6 °F 53.8 °F 29.9 in West 2 mph 4 mph 87% 0 in 0 W/m2
03:02 57.6 °F 53.8 °F 29.9 in West 2.9 mph 6 mph 87% 0 in 0 W/m2
03:07 57.4 °F 53.6 °F 29.9 in WNW 2 mph 3 mph 87% 0 in 0 W/m2
03:12 57.2 °F 53.4 °F 29.9 in West 2.9 mph 6 mph 87% 0 in 0 W/m2
03:17 57 °F 53.4 °F 29.9 in West 2 mph 4 mph 88% 0 in 0 W/m2
03:22 57 °F 53.4 °F 29.9 in West 0.9 mph 3 mph 88% 0 in 0 W/m2
03:27 56.8 °F 53.2 °F 29.9 in West 2 mph 4 mph 88% 0 in 0 W/m2
03:32 56.8 °F 53.1 °F 29.9 in West 2 mph 3 mph 87% 0 in 0 W/m2
03:37 56.8 °F 53.1 °F 29.9 in WSW 2.9 mph 4 mph 87% 0 in 0 W/m2
03:42 56.7 °F 53.1 °F 29.9 in WSW 0.9 mph 2 mph 88% 0 in 0 W/m2
03:47 56.7 °F 53.1 °F 29.9 in Calm   2 mph 88% 0 in 0 W/m2
03:52 56.3 °F 52.9 °F 29.9 in WSW 0.9 mph 2 mph 88% 0 in 0 W/m2
03:57 55.9 °F 52.7 °F 29.9 in Calm     89% 0 in 0 W/m2
04:02 55.8 °F 52.5 °F 29.9 in WSW 0.9 mph 2 mph 89% 0 in 0 W/m2
04:07 55.4 °F 52.5 °F 29.9 in WSW 0.9 mph 3 mph 90% 0 in 0 W/m2
04:12 55.2 °F 52.3 °F 29.9 in WSW 2 mph 4 mph 90% 0 in 0 W/m2
04:17 55.2 °F 52.3 °F 29.9 in WSW 2 mph 4 mph 90% 0 in 0 W/m2
04:22 55.4 °F 52.5 °F 29.9 in SW 2 mph 6 mph 90% 0 in 0 W/m2
04:27 55.6 °F 52.7 °F 29.9 in West 0.9 mph 3 mph 90% 0 in 0 W/m2
04:32 55.6 °F 52.3 °F 29.9 in SW 0.9 mph 2 mph 89% 0 in 0 W/m2
04:37 55.6 °F 52.3 °F 29.9 in WSW 0.9 mph 2 mph 89% 0 in 0 W/m2
04:42 55.6 °F 52.3 °F 29.9 in WSW 2 mph 4 mph 89% 0 in 0 W/m2
04:47 55.6 °F 52.3 °F 29.9 in WSW 0.9 mph 2 mph 89% 0 in 0 W/m2
04:53 55.6 °F 52.3 °F 29.9 in Calm   1 mph 89% 0 in 0 W/m2
04:58 55.4 °F 52.2 °F 29.9 in SW 2 mph 2 mph 89% 0 in 0 W/m2
05:03 55.2 °F 52 °F 29.9 in WSW 4 mph 7 mph 89% 0 in 0 W/m2
05:08 55.4 °F 52 °F 29.9 in SW 2 mph 6 mph 88% 0 in 0 W/m2
05:13 55.6 °F 52.2 °F 29.9 in WSW 2.9 mph 4 mph 88% 0 in 0 W/m2
05:18 55.6 °F 52.2 °F 29.9 in West 2 mph 3 mph 88% 0 in 0 W/m2
05:23 55.4 °F 52 °F 29.9 in WSW 4 mph 4 mph 88% 0 in 0 W/m2
05:28 55.6 °F 51.8 °F 29.9 in West 2.9 mph 8 mph 87% 0 in 0 W/m2
05:33 55.6 °F 51.8 °F 29.9 in West 4 mph 6 mph 87% 0 in 0 W/m2
05:38 55.6 °F 51.8 °F 29.9 in WSW 4.9 mph 8 mph 87% 0 in 0 W/m2
05:43 55.8 °F 52 °F 29.9 in West 2.9 mph 4 mph 87% 0 in 0 W/m2
05:48 55.6 °F 51.8 °F 29.9 in WSW 2.9 mph 8 mph 87% 0 in 0 W/m2
05:53 55.6 °F 51.8 °F 29.9 in WNW 2 mph 9 mph 87% 0 in 0 W/m2
05:58 55.8 °F 52 °F 29.9 in NW 2.9 mph 6 mph 87% 0 in 0 W/m2
06:03 55.8 °F 51.6 °F 29.9 in SW 2 mph 5 mph 86% 0 in 0 W/m2
06:08 55.9 °F 51.8 °F 29.9 in WSW 4.9 mph 5 mph 86% 0 in 0 W/m2
06:13 55.9 °F 51.8 °F 29.9 in WSW 2.9 mph 6 mph 86% 0 in 0 W/m2
06:18 55.9 °F 51.8 °F 29.9 in West 2 mph 4 mph 86% 0 in 5 W/m2
06:23 55.8 °F 51.6 °F 29.9 in WSW 2.9 mph 3 mph 86% 0 in 7 W/m2
06:28 55.8 °F 51.6 °F 29.9 in West 2.9 mph 4 mph 86% 0 in 9 W/m2
06:33 55.9 °F 51.8 °F 29.9 in WSW 0.9 mph 2 mph 86% 0 in 14 W/m2
06:38 55.8 °F 51.6 °F 29.9 in SW 2 mph 4 mph 86% 0 in 18 W/m2
06:43 55.9 °F 52.2 °F 29.9 in Calm   4 mph 87% 0 in 21 W/m2
06:48 55.8 °F 52 °F 29.9 in West 2 mph 4 mph 87% 0 in 25 W/m2
06:53 55.9 °F 51.8 °F 29.9 in WSW 0.9 mph 4 mph 86% 0 in 28 W/m2
06:58 56.1 °F 52 °F 30 in West 2 mph 3 mph 86% 0 in 32 W/m2
07:03 56.3 °F 52.2 °F 30 in WNW 2 mph 4 mph 86% 0 in 35 W/m2
07:08 56.5 °F 52.3 °F 30 in West 2 mph 4 mph 86% 0 in 44 W/m2
07:13 56.7 °F 52.5 °F 30 in West 0.9 mph 2 mph 86% 0 in 53 W/m2
07:18 56.7 °F 52.5 °F 30 in NW 2.9 mph 5 mph 86% 0 in 51 W/m2
07:23 57 °F 52.5 °F 30 in West 0.9 mph 2 mph 85% 0 in 56 W/m2
07:28 57 °F 52.9 °F 30 in WNW 2.9 mph 5 mph 86% 0 in 54 W/m2
07:33 57.2 °F 52.7 °F 30 in NW 0.9 mph 2 mph 85% 0 in 51 W/m2
07:38 57.2 °F 52.7 °F 30 in West 0.9 mph 5 mph 85% 0 in 49 W/m2
07:43 57.2 °F 52.7 °F 30 in WSW 2.9 mph 4 mph 85% 0 in 53 W/m2
07:48 57 °F 52.5 °F 30 in WNW 0.9 mph 5 mph 85% 0 in 56 W/m2
07:53 57.2 °F 52.7 °F 30 in WNW 0.9 mph 3 mph 85% 0 in 62 W/m2
07:59 57.2 °F 53.1 °F 30 in WNW 2 mph 2 mph 86% 0 in 67 W/m2
08:04 57.4 °F 53.2 °F 30 in WNW 2 mph 2 mph 86% 0 in 104 W/m2
08:09 57.6 °F 53.1 °F 30 in NW 0.9 mph 2 mph 85% 0 in 109 W/m2
08:14 57.9 °F 53.4 °F 30 in WNW 0.9 mph 2 mph 85% 0 in 79 W/m2
08:19 58.3 °F 53.4 °F 30 in Calm   1 mph 84% 0 in 77 W/m2
08:24 58.6 °F 53.8 °F 30 in WNW 0.9 mph 1 mph 84% 0 in 76 W/m2
08:29 59.2 °F 54 °F 30 in WNW 0.9 mph 3 mph 83% 0 in 90 W/m2
08:34 59.5 °F 54 °F 30 in NW 2.9 mph 4 mph 82% 0 in 95 W/m2
08:39 60.1 °F 54.5 °F 30 in North 2 mph 2 mph 82% 0 in 105 W/m2
08:44 60.6 °F 54.7 °F 30 in WNW 2 mph 3 mph 81% 0 in 84 W/m2
08:49 61.3 °F 54.9 °F 30 in NW 2.9 mph 3 mph 79% 0 in 90 W/m2
08:54 61.3 °F 54.5 °F 30 in East 2 mph 4 mph 78% 0 in 88 W/m2
08:59 61.3 °F 54.1 °F 30 in WNW 4 mph 6 mph 77% 0 in 88 W/m2
09:04 61.3 °F 54.5 °F 30 in NNW 2.9 mph 3 mph 78% 0 in 188 W/m2
09:09 61.5 °F 54.7 °F 30 in West 2.9 mph 8 mph 78% 0 in 313 W/m2
09:14 61.7 °F 54.9 °F 30 in NW 2 mph 3 mph 78% 0 in 348 W/m2
09:19 61.9 °F 54.9 °F 30 in West 2 mph 8 mph 78% 0 in 359 W/m2
09:24 62.1 °F 54.7 °F 30 in East 0.9 mph 3 mph 77% 0 in 381 W/m2
09:29 62.2 °F 54.5 °F 30 in East 2.9 mph 7 mph 76% 0 in 385 W/m2
09:34 62.6 °F 54.9 °F 30 in NNW 2.9 mph 3 mph 76% 0 in 392 W/m2
09:39 62.8 °F 54.7 °F 30 in North 2.9 mph 3 mph 75% 0 in 415 W/m2
09:45 63 °F 54.9 °F 30 in North 2 mph 8 mph 75% 0 in 425 W/m2
09:50 63.1 °F 55.4 °F 30 in NW 2.9 mph 5 mph 76% 0 in 380 W/m2
09:55 63.5 °F 55.4 °F 30 in NW 0.9 mph 3 mph 75% 0 in 104 W/m2
10:00 63.7 °F 55.6 °F 30 in WNW 2 mph 7 mph 75% 0 in 155 W/m2
10:05 63.7 °F 55.2 °F 30 in WNW 2.9 mph 7 mph 74% 0 in 483 W/m2
10:10 63.7 °F 55.2 °F 30 in WNW 4 mph 8 mph 74% 0 in 508 W/m2
10:15 63.9 °F 55.4 °F 30 in Calm   2 mph 74% 0 in 513 W/m2
10:20 64.2 °F 55.8 °F 30 in ENE 8 mph 8 mph 74% 0 in 527 W/m2
10:25 64.9 °F 55.8 °F 30 in North 2.9 mph 6 mph 72% 0 in 541 W/m2
10:30 64.9 °F 55.8 °F 30 in West 2.9 mph 4 mph 72% 0 in 545 W/m2
10:35 64.8 °F 55.6 °F 30 in WNW 2.9 mph 6 mph 72% 0 in 547 W/m2
10:40 64.8 °F 55.6 °F 30 in North 2 mph 3 mph 72% 0 in 571 W/m2
10:45 64.9 °F 55.4 °F 30 in NW 0.9 mph 7 mph 71% 0 in 589 W/m2
10:50 64.9 °F 55.8 °F 30 in NE 4 mph 5 mph 72% 0 in 594 W/m2
10:55 65.5 °F 56.3 °F 30 in SSE 0.9 mph 5 mph 72% 0 in 613 W/m2
11:00 65.8 °F 56.1 °F 30 in SE 0.9 mph 3 mph 71% 0 in 643 W/m2
11:05 66 °F 55.9 °F 30 in NW 0.9 mph 2 mph 70% 0 in 668 W/m2
11:10 66 °F 55.9 °F 30 in North 4 mph 4 mph 70% 0 in 661 W/m2
11:15 66 °F 55.9 °F 30 in WNW 2 mph 4 mph 70% 0 in 661 W/m2
11:20 66.2 °F 56.1 °F 30 in WNW 0.9 mph 3 mph 70% 0 in 694 W/m2
11:25 66.6 °F 56.1 °F 30 in NW 2.9 mph 8 mph 69% 0 in 710 W/m2
11:30 66.7 °F 56.7 °F 30 in East 2.9 mph 3 mph 70% 0 in 715 W/m2
11:35 67.5 °F 56.5 °F 30 in WNW 4 mph 7 mph 68% 0 in 729 W/m2
11:40 67.6 °F 56.3 °F 30 in North 2 mph 3 mph 67% 0 in 686 W/m2
11:45 67.8 °F 56.5 °F 30 in SW 0.9 mph 3 mph 67% 0 in 761 W/m2
11:50 67.8 °F 56.5 °F 30 in WNW 4 mph 4 mph 67% 0 in 269 W/m2
11:55 67.5 °F 55.8 °F 30 in WNW 0.9 mph 3 mph 66% 0 in 176 W/m2
12:00 67.5 °F 55.8 °F 30 in West 4 mph 4 mph 66% 0 in 800 W/m2
12:05 67.6 °F 55.4 °F 30 in West 2 mph 6 mph 65% 0 in 809 W/m2
12:10 68 °F 55.4 °F 30 in NW 0.9 mph 3 mph 64% 0 in 221 W/m2
12:15 68 °F 54.9 °F 30 in WSW 2 mph 4 mph 63% 0 in 413 W/m2
12:20 67.8 °F 54.7 °F 30 in NE 2 mph 2 mph 63% 0 in 190 W/m2
12:26 68.7 °F 56.1 °F 30 in East 2 mph 3 mph 64% 0 in 888 W/m2
12:31 69.4 °F 55.9 °F 30 in ESE 0.9 mph 2 mph 62% 0 in 905 W/m2
12:36 70.3 °F 55.8 °F 30 in NW 2 mph 5 mph 60% 0 in 932 W/m2
12:41 70.5 °F 56.5 °F 30 in Calm   1 mph 61% 0 in 849 W/m2
12:46 70.7 °F 55.6 °F 30 in WNW 4 mph 7 mph 59% 0 in 299 W/m2
12:51 69.6 °F 55 °F 30 in West 2 mph 4 mph 60% 0 in 183 W/m2
12:56 69.1 °F 55 °F 30 in WNW 0.9 mph 6 mph 61% 0 in 186 W/m2
13:01 68.7 °F 54.7 °F 30 in NW 0.9 mph 1 mph 61% 0 in 251 W/m2
13:06 68.5 °F 55 °F 30 in Calm   4 mph 62% 0 in 176 W/m2
13:11 69.1 °F 55 °F 30 in NNW 0.9 mph 1 mph 61% 0 in 287 W/m2
13:16 69.4 °F 54 °F 30 in North 0.9 mph 3 mph 58% 0 in 909 W/m2
13:21 70.3 °F 54.9 °F 30 in ESE 4 mph 5 mph 58% 0 in 916 W/m2
13:26 71.2 °F 55.2 °F 30 in North 0.9 mph 3 mph 57% 0 in 953 W/m2
13:31 71.8 °F 54.7 °F 30 in NNE 4.9 mph 6 mph 55% 0 in 366 W/m2
13:36 72 °F 54.9 °F 30 in West 2.9 mph 6 mph 55% 0 in 932 W/m2
13:42 72 °F 54.9 °F 30 in WNW 2.9 mph 5 mph 55% 0 in 267 W/m2
13:47 71.8 °F 55.2 °F 30 in WSW 2 mph 6 mph 56% 0 in 253 W/m2
13:52 71.4 °F 55.4 °F 30 in NW 0.9 mph 2 mph 57% 0 in 267 W/m2
13:57 71.8 °F 55.2 °F 30 in NW 2 mph 4 mph 56% 0 in 974 W/m2
14:02 72.9 °F 54.7 °F 30 in ENE 0.9 mph 3 mph 53% 0 in 1021 W/m2
14:07 73.4 °F 54.7 °F 30 in North 2 mph 3 mph 52% 0 in 675 W/m2
14:12 73.2 °F 54.5 °F 30 in WNW 4.9 mph 6 mph 52% 0 in 675 W/m2
14:17 72.7 °F 51.3 °F 30 in WNW 2 mph 6 mph 47% 0 in 232 W/m2
14:22 72 °F 51.8 °F 30 in NW 0.9 mph 4 mph 49% 0 in 914 W/m2
14:27 72.5 °F 53.4 °F 30 in WSW 2.9 mph 4 mph 51% 0 in 905 W/m2
14:32 72.9 °F 53.1 °F 30 in WSW 6.9 mph 7 mph 50% 0 in 879 W/m2
14:37 72.9 °F 53.1 °F 30 in SW 2 mph 4 mph 50% 0 in 889 W/m2
14:42 72.9 °F 53.1 °F 30 in Calm   2 mph 50% 0 in 881 W/m2
14:47 73.6 °F 53.8 °F 30 in NE 2.9 mph 4 mph 50% 0 in 193 W/m2
14:52 73.6 °F 53.2 °F 30 in WSW 0.9 mph 3 mph 49% 0 in 148 W/m2
14:57 73.2 °F 52.9 °F 30 in NW 2 mph 3 mph 49% 0 in 146 W/m2
15:02 73 °F 52.7 °F 30 in West 2.9 mph 4 mph 49% 0 in 160 W/m2
15:07 72.5 °F 52.9 °F 30 in NW 2 mph 2 mph 50% 0 in 188 W/m2
15:12 72.1 °F 53.1 °F 30 in West 0.9 mph 4 mph 51% 0 in 251 W/m2
15:17 72.5 °F 51.6 °F 30 in WNW 0.9 mph 3 mph 48% 0 in 863 W/m2
15:22 73.6 °F 52.2 °F 30 in WSW 2 mph 4 mph 47% 0 in 844 W/m2
15:27 74.1 °F 53.2 °F 30 in NE 2 mph 2 mph 48% 0 in 828 W/m2
15:32 74.7 °F 53.1 °F 30 in WNW 2 mph 2 mph 47% 0 in 826 W/m2
15:37 75 °F 52.2 °F 30 in WNW 4 mph 7 mph 45% 0 in 846 W/m2
15:42 75 °F 52.9 °F 30 in NW 4.9 mph 6 mph 46% 0 in 786 W/m2
15:47 74.8 °F 52.7 °F 30 in West 4 mph 6 mph 46% 0 in 782 W/m2
15:52 74.8 °F 52.7 °F 30 in NW 2 mph 6 mph 46% 0 in 766 W/m2
15:57 75 °F 51.6 °F 30 in West 0.9 mph 6 mph 44% 0 in 756 W/m2
16:02 75.4 °F 53.2 °F 30 in West 2 mph 7 mph 46% 0 in 770 W/m2
16:07 75.7 °F 51.6 °F 30 in WNW 2 mph 7 mph 43% 0 in 744 W/m2
16:12 75.6 °F 52.7 °F 30 in West 2 mph 4 mph 45% 0 in 752 W/m2
16:17 75.6 °F 52.2 °F 30 in West 0.9 mph 7 mph 44% 0 in 721 W/m2
16:22 75.7 °F 51.1 °F 30 in NW 2.9 mph 8 mph 42% 0 in 731 W/m2
16:27 75.9 °F 51.3 °F 30 in WNW 4 mph 5 mph 42% 0 in 738 W/m2
16:32 75.9 °F 52.5 °F 30 in WSW 4.9 mph 7 mph 44% 0 in 742 W/m2
16:37 75.7 °F 51.6 °F 30 in WSW 4 mph 7 mph 43% 0 in 717 W/m2
16:42 75.7 °F 51.6 °F 30 in WNW 4.9 mph 5 mph 43% 0 in 715 W/m2
16:47 76.3 °F 52.2 °F 30 in West 4 mph 5 mph 43% 0 in 684 W/m2
16:52 75.7 °F 52.3 °F 30 in WNW 8.1 mph 10 mph 44% 0 in 680 W/m2
16:57 75.7 °F 52.3 °F 30 in West 8.9 mph 9 mph 44% 0 in 680 W/m2
17:02 75.6 °F 52.2 °F 30 in WNW 4.9 mph 9 mph 44% 0 in 656 W/m2
17:07 74.8 °F 52.2 °F 30 in NW 2.9 mph 3 mph 45% 0 in 113 W/m2
17:12 74.7 °F 51.3 °F 30 in WSW 2 mph 3 mph 44% 0 in 621 W/m2
17:17 75.2 °F 51.8 °F 30 in WNW 2.9 mph 8 mph 44% 0 in 589 W/m2
17:22 75.7 °F 51.1 °F 30 in WNW 2 mph 4 mph 42% 0 in 582 W/m2
17:27 76.1 °F 51.3 °F 30 in NW 2 mph 8 mph 42% 0 in 570 W/m2
17:32 76.5 °F 51.1 °F 30 in WSW 0.9 mph 5 mph 41% 0 in 561 W/m2
17:37 76.8 °F 52 °F 30 in West 2 mph 3 mph 42% 0 in 559 W/m2
17:42 77.4 °F 52.5 °F 30 in West 2.9 mph 8 mph 42% 0 in 533 W/m2
17:47 77.2 °F 51.6 °F 30 in WNW 6 mph 6 mph 41% 0 in 503 W/m2
17:52 77.2 °F 51.1 °F 30 in North 2.9 mph 4 mph 40% 0 in 522 W/m2
17:57 77 °F 50.9 °F 30 in WNW 2 mph 3 mph 40% 0 in 504 W/m2
18:02 76.8 °F 51.3 °F 30 in NNW 2 mph 3 mph 41% 0 in 480 W/m2
18:07 77 °F 50.9 °F 30 in West 2 mph 6 mph 40% 0 in 469 W/m2
18:12 77.2 °F 51.1 °F 30 in NE 2 mph 3 mph 40% 0 in 454 W/m2
18:17 77.4 °F 51.1 °F 30 in West 2.9 mph 4 mph 40% 0 in 424 W/m2
18:22 77.4 °F 51.1 °F 30 in WNW 4 mph 4 mph 40% 0 in 417 W/m2
18:27 77.2 °F 50.4 °F 30 in WNW 2.9 mph 6 mph 39% 0 in 399 W/m2
18:32 76.8 °F 51.3 °F 30 in Calm   4 mph 41% 0 in 403 W/m2
18:37 77.2 °F 51.1 °F 30 in NNW 2 mph 9 mph 40% 0 in 404 W/m2
18:42 76.8 °F 50.7 °F 30 in WNW 2.9 mph 4 mph 40% 0 in 378 W/m2
18:48 76.5 °F 50.4 °F 30 in West 6 mph 7 mph 40% 0 in 179 W/m2
18:53 75.7 °F 51.1 °F 30 in West 2 mph 3 mph 42% 0 in 62 W/m2
18:58 75 °F 50.4 °F 30 in NW 2 mph 7 mph 42% 0 in 60 W/m2
19:03 74.8 °F 51.4 °F 30 in West 2 mph 3 mph 44% 0 in 258 W/m2
19:08 75 °F 50.4 °F 30 in West 2 mph 4 mph 42% 0 in 232 W/m2
19:13 75.6 °F 50.9 °F 30 in NW 0.9 mph 3 mph 42% 0 in 221 W/m2
19:18 75.7 °F 51.1 °F 30 in West 2 mph 4 mph 42% 0 in 123 W/m2
19:23 75.7 °F 51.1 °F 30 in WNW 0.9 mph 2 mph 42% 0 in 125 W/m2
19:28 75.9 °F 50.5 °F 30 in West 0.9 mph 1 mph 41% 0 in 167 W/m2
19:33 76.1 °F 50.7 °F 30 in West 0.9 mph 2 mph 41% 0 in 148 W/m2
19:38 76.3 °F 50.9 °F 30 in West 0.9 mph 4 mph 41% 0 in 167 W/m2
19:43 76.3 °F 52.2 °F 30 in Calm   1 mph 43% 0 in 165 W/m2
19:48 76.3 °F 54.5 °F 30 in Calm   3 mph 47% 0 in 171 W/m2
19:53 76.3 °F 55.2 °F 30 in Calm     48% 0 in 149 W/m2
19:58 76.3 °F 54 °F 30 in West 0.9 mph 2 mph 46% 0 in 125 W/m2
20:03 76.1 °F 52.5 °F 30 in West 0.9 mph 3 mph 44% 0 in 107 W/m2
20:08 75.6 °F 52.2 °F 30 in WSW 2 mph 3 mph 44% 0 in 90 W/m2
20:13 75.2 °F 52.3 °F 30 in WSW 0.9 mph 1 mph 45% 0 in 84 W/m2
20:18 75 °F 52.2 °F 30 in WSW 0.9 mph 1 mph 45% 0 in 62 W/m2
20:23 74.7 °F 52 °F 30 in WSW 0.9 mph 1 mph 45% 0 in 63 W/m2
20:28 74.1 °F 52 °F 30 in West 2 mph 3 mph 46% 0 in 30 W/m2
20:33 73.4 °F 51.4 °F 30 in West 0.9 mph 3 mph 46% 0 in 25 W/m2
20:38 72.5 °F 51.6 °F 30 in West 0.9 mph 2 mph 48% 0 in 21 W/m2
20:44 72 °F 51.8 °F 30 in West 0.9 mph 2 mph 49% 0 in 18 W/m2
20:49 71.2 °F 51.1 °F 30 in Calm   2 mph 49% 0 in 14 W/m2
20:54 70.9 °F 51.3 °F 30 in Calm   1 mph 50% 0 in 12 W/m2
20:59 70.3 °F 51.4 °F 30 in WSW 0.9 mph 2 mph 51% 0 in 12 W/m2
21:04 70 °F 52 °F 30 in Calm   1 mph 53% 0 in 9 W/m2
21:09 69.4 °F 52.2 °F 30 in Calm     54% 0 in 5 W/m2
21:14 68.9 °F 52 °F 30 in Calm     55% 0 in 0 W/m2
21:19 68.4 °F 52 °F 30 in Calm   1 mph 56% 0 in 0 W/m2
21:24 67.8 °F 52 °F 30 in Calm     57% 0 in 0 W/m2
21:29 67.3 °F 52 °F 30 in Calm     58% 0 in 0 W/m2
21:34 66.7 °F 52 °F 30 in Calm     59% 0 in 0 W/m2
21:39 66.4 °F 51.1 °F 30 in Calm     58% 0 in 0 W/m2
21:44 65.8 °F 51.1 °F 30 in Calm     59% 0 in 0 W/m2
21:49 65.7 °F 51.4 °F 30 in Calm     60% 0 in 0 W/m2
21:54 65.1 °F 51.8 °F 30 in Calm     62% 0 in 0 W/m2
21:59 64.8 °F 51.4 °F 30 in Calm     62% 0 in 0 W/m2
22:04 64.6 °F 51.3 °F 30 in Calm     62% 0 in 0 W/m2
22:09 64 °F 51.3 °F 30 in Calm   1 mph 63% 0 in 0 W/m2
22:14 63.9 °F 51.4 °F 30 in Calm     64% 0 in 0 W/m2
22:19 63.3 °F 50.5 °F 30 in Calm     63% 0 in 0 W/m2
22:24 63.1 °F 50.7 °F 30 in Calm     64% 0 in 0 W/m2
22:29 62.8 °F 50.4 °F 30 in Calm   1 mph 64% 0 in 0 W/m2
22:34 62.8 °F 50.9 °F 30 in Calm     65% 0 in 0 W/m2
22:39 62.4 °F 50.5 °F 30 in Calm   1 mph 65% 0 in 0 W/m2
22:44 62.2 °F 50.7 °F 30 in Calm     66% 0 in 0 W/m2
22:49 62.1 °F 50.9 °F 30 in Calm     67% 0 in 0 W/m2
22:54 61.9 °F 51.3 °F 30 in Calm     68% 0 in 0 W/m2
22:59 61.7 °F 51.4 °F 30 in Calm     69% 0 in 0 W/m2
23:04 61.3 °F 51.4 °F 30 in Calm     70% 0 in 0 W/m2
23:09 61.2 °F 50.5 °F 30 in Calm     68% 0 in 0 W/m2
23:14 61 °F 50.4 °F 30 in Calm     68% 0 in 0 W/m2
23:19 61 °F 51.1 °F 30 in Calm     70% 0 in 0 W/m2
23:24 60.6 °F 50.7 °F 30 in Calm     70% 0 in 0 W/m2
23:29 60.4 °F 50.5 °F 30 in Calm     70% 0 in 0 W/m2
23:34 60.3 °F 50.4 °F 30 in Calm     70% 0 in 0 W/m2
23:39 60.1 °F 50.7 °F 30 in Calm     71% 0 in 0 W/m2
23:44 59.7 °F 50.7 °F 30 in Calm     72% 0 in 0 W/m2
23:50 59.5 °F 50.5 °F 30 in Calm     72% 0 in 0 W/m2
23:55 59.4 °F 50.4 °F 30 in Calm     72% 0 in 0 W/m2
Juneau County Weather
Compliments of Weather Underground - 4 mb